Time;durP1;ratioP1;P1;durP2;ratioP2;P2;SDS_P1;SDS_P2;PMS_P1;PMS_P2;Temp;Humidity;BMP_temperature;BMP_pressure;BME280_temperature;BME280_humidity;BME280_pressure;Samples;Min_cycle;Max_cycle;Signal;HPM_P1;HPM_P2
2022/01/29 00:01:10;;;;;;;4.70;2.65;;;;;;;;;;5022153;28;20128;-70
2022/01/29 00:03:40;;;;;;;8.70;3.35;;;;;;;;;;5016915;28;20495;-70
2022/01/29 00:06:09;;;;;;;5.78;2.90;;;;;;;;;;5029472;28;20132;-70
2022/01/29 00:08:37;;;;;;;6.30;3.55;;;;;;;;;;5015346;28;20050;-70
2022/01/29 00:11:12;;;;;;;8.40;3.28;;;;;;;;;;5017326;28;20177;-70
2022/01/29 00:13:40;;;;;;;;;;;;;;;;;;5025889;28;20077;-70
2022/01/29 00:16:08;;;;;;;10.98;3.72;;;;;;;;;;5031082;28;19928;-70
2022/01/29 00:18:37;;;;;;;7.07;2.88;;;;;;;;;;5021759;28;20045;-70
2022/01/29 00:21:09;;;;;;;5.07;3.08;;;;;;;;;;5018516;28;20137;-69
2022/01/29 00:23:37;;;;;;;5.43;2.65;;;;;;;;;;5018937;28;20478;-70
2022/01/29 00:26:06;;;;;;;9.23;3.38;;;;;;;;;;5027813;28;20103;-70
2022/01/29 00:28:35;;;;;;;7.45;2.75;;;;;;;;;;5030665;28;20447;-70
2022/01/29 00:31:10;;;;;;;10.27;3.78;;;;;;;;;;5021259;28;20509;-70
2022/01/29 00:33:39;;;;;;;6.63;3.55;;;;;;;;;;5026858;28;20144;-70
2022/01/29 00:36:07;;;;;;;6.32;3.20;;;;;;;;;;5022560;28;20041;-70
2022/01/29 00:38:37;;;;;;;7.10;3.40;;;;;;;;;;5019445;28;20058;-70
2022/01/29 00:41:08;;;;;;;11.20;3.13;;;;;;;;;;5022388;28;20462;-70
2022/01/29 00:43:37;;;;;;;8.52;3.10;;;;;;;;;;5013049;28;20045;-70
2022/01/29 00:46:08;;;;;;;11.52;3.67;;;;;;;;;;5025022;28;20053;-70
2022/01/29 00:48:36;;;;;;;9.52;3.35;;;;;;;;;;5013364;28;20492;-70
2022/01/29 00:51:10;;;;;;;7.00;3.05;;;;;;;;;;5029497;28;20049;-70
2022/01/29 00:53:40;;;;;;;7.20;3.25;;;;;;;;;;5016125;28;20053;-70
2022/01/29 00:56:10;;;;;;;7.45;3.28;;;;;;;;;;5021097;28;20046;-70
2022/01/29 00:58:38;;;;;;;6.65;2.80;;;;;;;;;;5020863;28;20055;-70
2022/01/29 01:01:06;;;;;;;6.55;3.13;;;;;;;;;;5042979;28;20065;-70
2022/01/29 01:03:35;;;;;;;8.15;2.80;;;;;;;;;;5035124;28;20045;-70
2022/01/29 01:06:06;;;;;;;7.38;4.00;;;;;;;;;;5049933;28;20049;-70
2022/01/29 01:08:35;;;;;;;7.70;3.80;;;;;;;;;;5040363;28;20112;-70
2022/01/29 01:11:07;;;;;;;9.25;2.83;;;;;;;;;;5038076;28;20821;-70
2022/01/29 01:13:36;;;;;;;6.20;3.28;;;;;;;;;;5036940;28;20132;-70
2022/01/29 01:16:07;;;;;;;10.02;3.30;;;;;;;;;;5042731;28;20593;-70
2022/01/29 01:18:35;;;;;;;7.57;3.35;;;;;;;;;;5046766;28;20049;-70
2022/01/29 01:21:06;;;;;;;7.03;2.95;;;;;;;;;;5039264;28;20054;-70
2022/01/29 01:23:35;;;;;;;8.38;3.22;;;;;;;;;;5042365;28;20049;-70
2022/01/29 01:26:07;;;;;;;5.80;2.78;;;;;;;;;;5036810;28;20135;-70
2022/01/29 01:28:35;;;;;;;6.78;3.60;;;;;;;;;;5032561;28;20134;-70
2022/01/29 01:31:07;;;;;;;5.63;3.15;;;;;;;;;;5033843;28;20160;-70
2022/01/29 01:33:35;;;;;;;7.72;3.90;;;;;;;;;;5035228;28;21526;-70
2022/01/29 01:36:08;;;;;;;6.90;3.22;;;;;;;;;;5038963;28;20129;-70
2022/01/29 01:38:42;;;;;;;8.13;3.67;;;;;;;;;;5032586;28;20041;-70
2022/01/29 01:41:15;;;;;;;13.00;3.60;;;;;;;;;;5041197;28;20336;-70
2022/01/29 01:43:43;;;;;;;7.05;3.80;;;;;;;;;;5035698;28;20136;-70
2022/01/29 01:46:12;;;;;;;8.07;4.05;;;;;;;;;;5039355;28;20046;-70
2022/01/29 01:48:40;;;;;;;9.13;3.35;;;;;;;;;;5030263;28;20041;-70
2022/01/29 01:51:08;;;;;;;11.05;3.63;;;;;;;;;;4966806;28;20136;-71
2022/01/29 01:53:37;;;;;;;6.00;3.17;;;;;;;;;;334958;28;10022747;-70
2022/01/29 01:56:08;;;;;;;6.65;3.10;;;;;;;;;;5044234;28;20056;-70
2022/01/29 01:58:37;;;;;;;6.82;3.45;;;;;;;;;;5052554;28;20103;-70
2022/01/29 02:01:09;;;;;;;7.05;2.97;;;;;;;;;;5042833;28;20047;-70
2022/01/29 02:03:38;;;;;;;9.50;3.75;;;;;;;;;;5045836;28;20120;-70
2022/01/29 02:06:09;;;;;;;6.47;3.45;;;;;;;;;;5043602;28;20048;-70
2022/01/29 02:08:37;;;;;;;6.53;3.42;;;;;;;;;;5038002;28;20413;-70
2022/01/29 02:11:10;;;;;;;6.10;2.95;;;;;;;;;;5044461;28;20124;-70
2022/01/29 02:13:39;;;;;;;5.63;3.20;;;;;;;;;;5033083;28;20045;-70
2022/01/29 02:16:08;;;;;;;10.82;3.55;;;;;;;;;;5033059;28;20495;-70
2022/01/29 02:18:37;;;;;;;7.65;3.45;;;;;;;;;;5035297;28;20063;-70
2022/01/29 02:21:06;;;;;;;7.80;4.05;;;;;;;;;;5047677;28;20041;-70
2022/01/29 02:23:36;;;;;;;8.50;3.70;;;;;;;;;;5047022;28;20476;-70
2022/01/29 02:26:07;;;;;;;10.20;3.47;;;;;;;;;;5050341;28;20080;-70
2022/01/29 02:28:35;;;;;;;7.75;3.63;;;;;;;;;;5048096;28;20052;-70
2022/01/29 02:31:06;;;;;;;10.55;3.90;;;;;;;;;;5039070;28;20041;-70
2022/01/29 02:33:35;;;;;;;7.10;4.05;;;;;;;;;;5040819;28;20059;-70
2022/01/29 02:36:06;;;;;;;6.20;3.15;;;;;;;;;;5042453;28;20052;-70
2022/01/29 02:38:36;;;;;;;11.02;4.05;;;;;;;;;;5037504;28;20144;-70
2022/01/29 02:41:07;;;;;;;9.20;3.55;;;;;;;;;;5039584;28;20172;-70
2022/01/29 02:43:41;;;;;;;6.82;3.33;;;;;;;;;;5045278;28;20114;-70
2022/01/29 02:46:20;;;;;;;7.47;3.92;;;;;;;;;;4980981;28;20132;-71
2022/01/29 02:48:51;;;;;;;9.95;2.70;;;;;;;;;;343520;28;10022564;-70
2022/01/29 02:51:19;;;;;;;11.55;4.35;;;;;;;;;;5018976;28;20489;-70
2022/01/29 02:53:49;;;;;;;8.10;3.75;;;;;;;;;;5028066;28;20041;-70
2022/01/29 02:56:17;;;;;;;9.45;3.38;;;;;;;;;;5028623;28;20144;-70
2022/01/29 02:58:46;;;;;;;10.90;4.03;;;;;;;;;;5035336;28;20044;-70
2022/01/29 03:01:14;;;;;;;9.40;3.47;;;;;;;;;;5042517;28;20583;-70
2022/01/29 03:03:43;;;;;;;5.53;3.75;;;;;;;;;;5036935;28;20137;-70
2022/01/29 03:06:11;;;;;;;6.55;3.28;;;;;;;;;;5038430;28;20512;-70
2022/01/29 03:08:39;;;;;;;6.78;3.22;;;;;;;;;;5037412;28;20053;-70
2022/01/29 03:11:11;;;;;;;5.18;2.80;;;;;;;;;;5038736;28;20077;-70
2022/01/29 03:13:40;;;;;;;10.07;3.25;;;;;;;;;;5038875;28;20053;-70
2022/01/29 03:16:08;;;;;;;8.18;3.60;;;;;;;;;;5054099;28;20049;-70
2022/01/29 03:18:36;;;;;;;6.22;3.22;;;;;;;;;;5037957;28;20049;-70
2022/01/29 03:21:07;;;;;;;6.35;3.38;;;;;;;;;;5036328;28;20075;-70
2022/01/29 03:23:36;;;;;;;8.60;3.45;;;;;;;;;;5038514;28;20536;-70
2022/01/29 03:26:07;;;;;;;7.35;3.13;;;;;;;;;;5043324;28;20128;-70
2022/01/29 03:28:37;;;;;;;6.00;3.22;;;;;;;;;;5043684;28;20136;-70
2022/01/29 03:31:08;;;;;;;6.25;3.35;;;;;;;;;;5043365;28;20516;-69
2022/01/29 03:33:36;;;;;;;9.10;3.33;;;;;;;;;;5040676;28;20072;-67
2022/01/29 03:36:08;;;;;;;12.18;3.45;;;;;;;;;;5045607;28;20579;-68
2022/01/29 03:38:39;;;;;;;8.75;3.20;;;;;;;;;;5043259;28;20471;-68
2022/01/29 03:41:09;;;;;;;9.23;3.40;;;;;;;;;;5041813;28;20132;-68
2022/01/29 03:43:44;;;;;;;12.43;3.70;;;;;;;;;;5035610;28;20045;-68
2022/01/29 03:46:12;;;;;;;;;;;;;;;;;;5045736;28;20053;-68
2022/01/29 03:48:41;;;;;;;8.90;3.55;;;;;;;;;;5045743;28;20241;-68
2022/01/29 03:51:10;;;;;;;6.13;3.70;;;;;;;;;;5040526;28;20080;-69
2022/01/29 03:53:38;;;;;;;7.15;3.25;;;;;;;;;;5048300;28;20136;-68
2022/01/29 03:56:07;;;;;;;13.18;3.58;;;;;;;;;;5044355;28;20179;-68
2022/01/29 03:58:35;;;;;;;7.13;3.70;;;;;;;;;;5045940;28;20049;-68
2022/01/29 04:01:07;;;;;;;8.65;3.63;;;;;;;;;;5041598;28;20084;-68
2022/01/29 04:03:35;;;;;;;5.93;3.30;;;;;;;;;;4960413;28;20045;-69
2022/01/29 04:06:06;;;;;;;10.50;3.80;;;;;;;;;;345423;28;10021996;-69
2022/01/29 04:08:40;;;;;;;7.68;3.75;;;;;;;;;;5047359;28;20467;-69
2022/01/29 04:11:10;;;;;;;6.73;3.53;;;;;;;;;;5043311;28;20049;-68
2022/01/29 04:13:40;;;;;;;9.80;3.10;;;;;;;;;;5039088;28;20050;-69
2022/01/29 04:16:10;;;;;;;8.75;3.20;;;;;;;;;;5043944;28;20076;-68
2022/01/29 04:18:38;;;;;;;5.43;2.58;;;;;;;;;;5042973;28;20044;-69
2022/01/29 04:21:07;;;;;;;9.00;3.35;;;;;;;;;;5040490;28;20098;-68
2022/01/29 04:23:35;;;;;;;9.57;3.45;;;;;;;;;;5043329;28;20088;-68
2022/01/29 04:26:07;;;;;;;7.45;3.25;;;;;;;;;;5036919;28;20041;-68
2022/01/29 04:28:39;;;;;;;5.50;2.63;;;;;;;;;;5044890;28;20129;-69
2022/01/29 04:31:12;;;;;;;8.93;2.90;;;;;;;;;;5043220;28;20564;-68
2022/01/29 04:33:41;;;;;;;6.00;3.33;;;;;;;;;;5039372;28;20049;-69
2022/01/29 04:36:10;;;;;;;9.73;3.28;;;;;;;;;;5057317;28;20130;-68
2022/01/29 04:38:38;;;;;;;8.55;3.40;;;;;;;;;;5048094;28;20554;-68
2022/01/29 04:41:07;;;;;;;8.52;3.80;;;;;;;;;;5049117;28;20057;-69
2022/01/29 04:43:36;;;;;;;4.68;2.85;;;;;;;;;;5034387;28;20091;-68
2022/01/29 04:46:08;;;;;;;9.00;3.47;;;;;;;;;;5052814;28;20090;-68
2022/01/29 04:48:36;;;;;;;7.70;3.08;;;;;;;;;;5041329;28;20148;-68
2022/01/29 04:51:09;;;;;;;6.32;3.50;;;;;;;;;;5043368;28;20152;-68
2022/01/29 04:53:40;;;;;;;5.50;2.42;;;;;;;;;;5036811;28;20517;-68
2022/01/29 04:56:08;;;;;;;6.80;2.88;;;;;;;;;;5048876;28;20053;-68
2022/01/29 04:58:37;;;;;;;4.30;2.45;;;;;;;;;;5045348;28;20041;-68
2022/01/29 05:01:08;;;;;;;6.63;3.28;;;;;;;;;;5043392;28;20530;-68
2022/01/29 05:03:36;;;;;;;7.07;3.60;;;;;;;;;;5038652;28;20493;-68
2022/01/29 05:06:10;;;;;;;8.35;3.10;;;;;;;;;;5043712;28;20095;-68
2022/01/29 05:08:38;;;;;;;9.52;3.17;;;;;;;;;;5047454;28;20084;-69
2022/01/29 05:11:08;;;;;;;7.38;3.03;;;;;;;;;;5053138;28;20128;-68
2022/01/29 05:13:39;;;;;;;12.05;3.13;;;;;;;;;;5033779;28;21914;-68
2022/01/29 05:27:14;;;;;;;7.70;3.58;;;;;;;;;;5049539;28;20140;-68
2022/01/29 05:29:42;;;;;;;8.48;3.10;;;;;;;;;;5046528;28;20156;-68
2022/01/29 05:32:12;;;;;;;6.72;3.53;;;;;;;;;;5046643;28;20132;-68
2022/01/29 05:34:41;;;;;;;8.05;3.20;;;;;;;;;;5038996;28;20049;-68
2022/01/29 05:37:31;;;;;;;8.68;3.65;;;;;;;;;;5043633;28;20504;-68
2022/01/29 05:39:59;;;;;;;6.85;3.47;;;;;;;;;;5043455;28;20492;-68
2022/01/29 05:42:27;;;;;;;9.75;3.78;;;;;;;;;;5046852;28;20131;-68
2022/01/29 05:44:55;;;;;;;5.88;2.67;;;;;;;;;;5048155;28;20044;-68
2022/01/29 05:47:24;;;;;;;8.30;3.83;;;;;;;;;;5045019;28;20128;-68
2022/01/29 05:49:52;;;;;;;8.88;3.33;;;;;;;;;;5037455;28;20565;-68
2022/01/29 05:52:20;;;;;;;6.35;3.13;;;;;;;;;;5042630;28;20540;-68
2022/01/29 05:54:51;;;;;;;8.48;3.17;;;;;;;;;;5042105;28;20132;-68
2022/01/29 05:57:19;;;;;;;7.88;3.00;;;;;;;;;;5036504;28;20107;-68
2022/01/29 05:59:48;;;;;;;5.30;2.97;;;;;;;;;;5037716;28;20540;-68
2022/01/29 06:02:16;;;;;;;8.70;3.30;;;;;;;;;;5035775;28;20136;-68
2022/01/29 06:04:44;;;;;;;6.25;3.08;;;;;;;;;;5038847;28;20045;-68
2022/01/29 06:07:13;;;;;;;9.02;3.30;;;;;;;;;;5033176;28;20095;-68
2022/01/29 06:09:41;;;;;;;5.70;3.35;;;;;;;;;;5040356;28;20053;-68
2022/01/29 06:12:20;;;;;;;6.58;2.53;;;;;;;;;;572750;28;10022504;-68
2022/01/29 06:14:48;;;;;;;10.13;3.40;;;;;;;;;;5042196;28;20257;-68
2022/01/29 06:17:17;;;;;;;8.50;3.05;;;;;;;;;;5042346;28;20127;-68
2022/01/29 06:19:47;;;;;;;5.85;3.10;;;;;;;;;;5041204;28;20037;-68
2022/01/29 06:22:21;;;;;;;7.38;3.08;;;;;;;;;;5045911;28;20063;-68
2022/01/29 06:24:50;;;;;;;7.18;2.70;;;;;;;;;;5046337;28;20478;-68
2022/01/29 06:27:19;;;;;;;6.85;3.22;;;;;;;;;;5038177;28;20564;-68
2022/01/29 06:29:48;;;;;;;5.40;3.03;;;;;;;;;;5045150;28;20287;-68
2022/01/29 06:32:17;;;;;;;10.60;3.42;;;;;;;;;;5038906;28;20110;-68
2022/01/29 06:34:45;;;;;;;11.23;3.97;;;;;;;;;;5032137;28;20052;-68
2022/01/29 06:37:13;;;;;;;11.38;3.17;;;;;;;;;;5039559;28;20056;-68
2022/01/29 06:39:41;;;;;;;9.73;3.20;;;;;;;;;;5036636;28;20055;-69
2022/01/29 06:42:10;;;;;;;9.80;3.15;;;;;;;;;;5041577;28;20136;-69
2022/01/29 06:44:39;;;;;;;7.43;3.20;;;;;;;;;;5033008;28;20069;-68
2022/01/29 06:47:08;;;;;;;6.65;3.15;;;;;;;;;;5044672;28;20721;-68
2022/01/29 06:49:36;;;;;;;6.25;2.90;;;;;;;;;;5033376;28;20144;-68
2022/01/29 06:52:05;;;;;;;8.48;3.22;;;;;;;;;;5040998;28;20095;-68
2022/01/29 06:54:34;;;;;;;6.10;3.10;;;;;;;;;;5046302;28;20056;-68
2022/01/29 06:57:02;;;;;;;6.88;3.13;;;;;;;;;;5033033;28;20124;-68
2022/01/29 06:59:31;;;;;;;6.88;2.92;;;;;;;;;;5041241;28;20475;-69
2022/01/29 07:02:01;;;;;;;6.15;2.30;;;;;;;;;;5035896;28;20479;-69
2022/01/29 07:04:29;;;;;;;7.68;3.00;;;;;;;;;;5040656;28;20542;-69
2022/01/29 07:06:58;;;;;;;3.88;2.47;;;;;;;;;;5042255;28;20143;-69
2022/01/29 07:09:26;;;;;;;5.13;2.47;;;;;;;;;;5034334;28;20144;-69
2022/01/29 07:11:57;;;;;;;6.55;2.40;;;;;;;;;;5031901;28;20511;-69
2022/01/29 07:14:26;;;;;;;5.78;2.75;;;;;;;;;;5025773;28;20068;-69
2022/01/29 07:16:54;;;;;;;6.32;2.70;;;;;;;;;;5040794;28;20412;-69
2022/01/29 07:19:24;;;;;;;4.18;2.33;;;;;;;;;;5038203;28;20048;-69
2022/01/29 07:21:52;;;;;;;4.75;2.30;;;;;;;;;;5041322;28;20132;-69
2022/01/29 07:24:21;;;;;;;7.28;2.53;;;;;;;;;;5034598;28;20055;-69
2022/01/29 07:26:49;;;;;;;7.55;2.65;;;;;;;;;;5033291;28;20091;-69
2022/01/29 07:29:18;;;;;;;7.80;3.05;;;;;;;;;;5032330;28;20423;-70
2022/01/29 07:31:46;;;;;;;4.32;2.35;;;;;;;;;;5047425;28;20060;-69
2022/01/29 07:34:14;;;;;;;6.60;2.55;;;;;;;;;;5042899;28;20140;-69
2022/01/29 07:36:44;;;;;;;3.55;2.40;;;;;;;;;;5036650;28;20460;-69
2022/01/29 07:39:12;;;;;;;3.33;2.22;;;;;;;;;;5045660;28;20128;-69
2022/01/29 07:41:41;;;;;;;3.10;1.85;;;;;;;;;;5043628;28;20360;-70
2022/01/29 07:44:09;;;;;;;4.03;2.40;;;;;;;;;;5030610;28;20698;-69
2022/01/29 07:46:38;;;;;;;5.20;2.17;;;;;;;;;;5043923;28;20164;-69
2022/01/29 07:49:07;;;;;;;6.32;2.03;;;;;;;;;;5046249;28;20056;-69
2022/01/29 07:51:35;;;;;;;3.13;1.80;;;;;;;;;;5038935;28;20046;-69
2022/01/29 07:54:05;;;;;;;6.10;2.20;;;;;;;;;;5039997;28;20135;-69
2022/01/29 07:56:34;;;;;;;3.47;2.22;;;;;;;;;;5049258;28;20543;-69
2022/01/29 07:59:03;;;;;;;4.65;2.45;;;;;;;;;;5044129;28;20136;-69
2022/01/29 08:01:31;;;;;;;5.35;2.47;;;;;;;;;;5039990;28;20080;-69
2022/01/29 08:04:00;;;;;;;5.88;2.70;;;;;;;;;;5039103;28;20045;-69
2022/01/29 08:06:29;;;;;;;6.43;2.35;;;;;;;;;;5033063;28;20148;-69
2022/01/29 08:08:57;;;;;;;5.53;2.20;;;;;;;;;;5047517;28;20137;-69
2022/01/29 08:11:27;;;;;;;3.75;2.08;;;;;;;;;;5042931;28;20055;-69
2022/01/29 08:13:55;;;;;;;3.63;2.20;;;;;;;;;;5034447;28;20633;-69
2022/01/29 08:16:24;;;;;;;6.13;2.60;;;;;;;;;;5030289;28;20458;-69
2022/01/29 08:18:53;;;;;;;3.45;2.10;;;;;;;;;;5029775;28;20053;-69
2022/01/29 08:21:21;;;;;;;5.63;2.20;;;;;;;;;;5035183;28;20049;-69
2022/01/29 08:23:49;;;;;;;4.90;2.33;;;;;;;;;;5038605;28;20087;-69
2022/01/29 08:26:18;;;;;;;4.05;2.20;;;;;;;;;;5046056;28;20057;-70
2022/01/29 08:28:47;;;;;;;5.43;2.38;;;;;;;;;;5032972;28;20128;-69
2022/01/29 08:31:16;;;;;;;5.85;2.25;;;;;;;;;;5041817;28;20199;-69
2022/01/29 08:33:44;;;;;;;7.07;2.30;;;;;;;;;;5040077;28;20087;-69
2022/01/29 08:36:13;;;;;;;6.03;1.92;;;;;;;;;;5038349;28;20045;-69
2022/01/29 08:38:42;;;;;;;3.85;1.88;;;;;;;;;;5051450;28;20357;-69
2022/01/29 08:41:10;;;;;;;6.28;2.10;;;;;;;;;;5046226;28;20111;-69
2022/01/29 08:43:39;;;;;;;4.57;2.15;;;;;;;;;;5046809;28;20111;-69
2022/01/29 08:46:09;;;;;;;4.55;2.17;;;;;;;;;;5040000;28;20053;-69
2022/01/29 08:48:38;;;;;;;5.60;2.20;;;;;;;;;;5033189;28;20049;-69
2022/01/29 08:51:09;;;;;;;4.05;2.17;;;;;;;;;;5043375;28;20045;-70
2022/01/29 08:53:38;;;;;;;7.85;2.50;;;;;;;;;;5039968;28;20045;-70
2022/01/29 08:56:06;;;;;;;4.40;2.15;;;;;;;;;;5046035;28;20079;-70
2022/01/29 08:58:34;;;;;;;6.68;2.58;;;;;;;;;;5040834;28;20126;-70
2022/01/29 09:01:14;;;;;;;4.14;2.11;;;;;;;;;;4923448;28;10000741;-71
2022/01/29 09:03:43;;;;;;;6.18;2.40;;;;;;;;;;694336;28;10002067;-69
2022/01/29 09:06:11;;;;;;;9.35;2.47;;;;;;;;;;5044995;28;20721;-69
2022/01/29 09:08:40;;;;;;;7.63;2.35;;;;;;;;;;5046477;28;20052;-69
2022/01/29 09:11:09;;;;;;;4.25;2.30;;;;;;;;;;5042425;28;20053;-69
2022/01/29 09:13:37;;;;;;;7.85;2.75;;;;;;;;;;5040755;28;20130;-70
2022/01/29 09:16:09;;;;;;;7.32;2.58;;;;;;;;;;5046636;28;20145;-70
2022/01/29 09:18:39;;;;;;;9.27;2.63;;;;;;;;;;5047518;28;20080;-70
2022/01/29 09:21:07;;;;;;;11.77;2.55;;;;;;;;;;5035913;28;20174;-70
2022/01/29 09:23:35;;;;;;;4.18;1.85;;;;;;;;;;5029277;28;20049;-70
2022/01/29 09:26:07;;;;;;;3.05;1.88;;;;;;;;;;5047864;28;20055;-70
2022/01/29 09:28:35;;;;;;;4.38;2.10;;;;;;;;;;5060379;28;20076;-70
2022/01/29 09:31:06;;;;;;;4.57;2.28;;;;;;;;;;5034675;28;20128;-70
2022/01/29 09:33:34;;;;;;;5.80;2.28;;;;;;;;;;5033375;28;20223;-70
2022/01/29 09:36:08;;;;;;;5.15;2.08;;;;;;;;;;5039017;28;20127;-70
2022/01/29 09:38:36;;;;;;;4.68;2.22;;;;;;;;;;5037954;28;20153;-70
2022/01/29 09:41:08;;;;;;;5.22;2.22;;;;;;;;;;5032131;28;20136;-70
2022/01/29 09:43:36;;;;;;;7.78;1.90;;;;;;;;;;5041738;28;20085;-70
2022/01/29 09:46:08;;;;;;;6.72;2.10;;;;;;;;;;5037785;28;20084;-70
2022/01/29 09:48:37;;;;;;;2.80;1.70;;;;;;;;;;5028731;28;20386;-70
2022/01/29 09:51:12;;;;;;;4.43;1.52;;;;;;;;;;5035113;28;20049;-69
2022/01/29 09:53:43;;;;;;;7.15;1.70;;;;;;;;;;5032148;28;20044;-70
2022/01/29 09:56:11;;;;;;;2.90;1.67;;;;;;;;;;5037105;28;20085;-70
2022/01/29 09:58:41;;;;;;;3.13;1.73;;;;;;;;;;5040482;28;20075;-70
2022/01/29 10:01:10;;;;;;;3.45;1.88;;;;;;;;;;5044853;28;20459;-70
2022/01/29 10:03:38;;;;;;;3.38;1.55;;;;;;;;;;5040782;28;20459;-70
2022/01/29 10:06:17;;;;;;;2.80;1.70;;;;;;;;;;378188;28;10022859;-71
2022/01/29 10:08:45;;;;;;;3.95;1.60;;;;;;;;;;5032370;28;20269;-70
2022/01/29 10:11:19;;;;;;;3.53;1.40;;;;;;;;;;5046466;28;20068;-70
2022/01/29 10:13:48;;;;;;;6.03;1.48;;;;;;;;;;5044999;28;21837;-70
2022/01/29 10:16:18;;;;;;;1.67;1.10;;;;;;;;;;5040007;28;20148;-70
2022/01/29 10:18:48;;;;;;;3.58;1.50;;;;;;;;;;5043606;28;20053;-70
2022/01/29 10:21:18;;;;;;;3.20;1.30;;;;;;;;;;5036672;28;20062;-70
2022/01/29 10:23:47;;;;;;;2.35;1.40;;;;;;;;;;5043887;28;20404;-70
2022/01/29 10:26:28;;;;;;;7.45;1.33;;;;;;;;;;5033328;28;20045;-70
2022/01/29 10:28:57;;;;;;;2.15;1.05;;;;;;;;;;5039730;28;20050;-70
2022/01/29 10:31:25;;;;;;;3.38;1.33;;;;;;;;;;5041454;28;20478;-70
2022/01/29 10:33:54;;;;;;;4.13;1.20;;;;;;;;;;5031995;28;20124;-70
2022/01/29 10:36:25;;;;;;;3.35;1.42;;;;;;;;;;5045703;28;20144;-70
2022/01/29 10:38:55;;;;;;;2.38;1.17;;;;;;;;;;5043544;28;20076;-70
2022/01/29 10:41:25;;;;;;;3.28;0.85;;;;;;;;;;5052637;28;20052;-70
2022/01/29 10:44:14;;;;;;;1.20;0.75;;;;;;;;;;5057930;28;20507;-70
2022/01/29 10:46:45;;;;;;;4.13;0.88;;;;;;;;;;5048295;28;20048;-70
2022/01/29 10:49:21;;;;;;;2.15;0.70;;;;;;;;;;5040944;28;20469;-70
2022/01/29 10:51:58;;;;;;;2.88;0.90;;;;;;;;;;5045884;28;20049;-70
2022/01/29 10:54:26;;;;;;;1.00;0.70;;;;;;;;;;5041621;28;20092;-70
2022/01/29 10:56:56;;;;;;;2.70;0.70;;;;;;;;;;5047573;28;20450;-70
2022/01/29 10:59:25;;;;;;;1.55;0.65;;;;;;;;;;5041693;28;20061;-70
2022/01/29 11:01:54;;;;;;;1.55;0.85;;;;;;;;;;5044323;28;20060;-70
2022/01/29 11:04:25;;;;;;;1.60;0.60;;;;;;;;;;5033883;28;20136;-70
2022/01/29 11:06:54;;;;;;;0.70;0.50;;;;;;;;;;5051040;28;20501;-70
2022/01/29 11:09:24;;;;;;;1.83;0.52;;;;;;;;;;5033963;28;20057;-70
2022/01/29 11:11:54;;;;;;;4.13;0.80;;;;;;;;;;5037632;28;20046;-70
2022/01/29 11:14:24;;;;;;;0.85;0.50;;;;;;;;;;5048716;28;20132;-70
2022/01/29 11:16:53;;;;;;;1.08;0.70;;;;;;;;;;5034650;28;20049;-69
2022/01/29 11:19:22;;;;;;;2.78;0.70;;;;;;;;;;5042439;28;20086;-70
2022/01/29 11:21:53;;;;;;;0.85;0.40;;;;;;;;;;5045343;28;20597;-70
2022/01/29 11:24:22;;;;;;;5.35;0.75;;;;;;;;;;5043749;28;20505;-70
2022/01/29 11:26:53;;;;;;;0.82;0.73;;;;;;;;;;5038128;28;20790;-70
2022/01/29 11:29:25;;;;;;;1.77;0.73;;;;;;;;;;5044503;28;20053;-70
2022/01/29 11:32:12;;;;;;;4.00;0.65;;;;;;;;;;5036348;28;20467;-70
2022/01/29 11:34:56;;;;;;;2.25;0.60;;;;;;;;;;5041099;28;20402;-70
2022/01/29 11:37:37;;;;;;;1.10;0.57;;;;;;;;;;5046056;28;20091;-70
2022/01/29 11:40:16;;;;;;;0.98;0.60;;;;;;;;;;5035348;28;20085;-70
2022/01/29 11:43:06;;;;;;;4.60;0.80;;;;;;;;;;5043843;28;20577;-69
2022/01/29 11:45:43;;;;;;;0.93;0.60;;;;;;;;;;5040257;28;20077;-70
2022/01/29 11:48:31;;;;;;;4.43;1.20;;;;;;;;;;5038209;28;20563;-70
2022/01/29 11:51:01;;;;;;;0.60;0.60;;;;;;;;;;5037061;28;20551;-70
2022/01/29 11:53:48;;;;;;;2.03;0.80;;;;;;;;;;5033669;28;20140;-68
2022/01/29 11:56:27;;;;;;;1.83;1.10;;;;;;;;;;5035992;28;20491;-69
2022/01/29 11:59:10;;;;;;;1.92;1.23;;;;;;;;;;5034605;28;20424;-69
2022/01/29 12:01:46;;;;;;;3.17;0.80;;;;;;;;;;5032377;28;20539;-69
2022/01/29 12:04:54;;;;;;;1.25;0.77;;;;;;;;;;4246342;28;10002084;-68
2022/01/29 12:07:29;;;;;;;1.00;0.63;;;;;;;;;;3812696;28;10002228;-69
2022/01/29 12:10:02;;;;;;;2.33;0.80;;;;;;;;;;5047375;28;20147;-69
2022/01/29 12:12:33;;;;;;;2.65;0.68;;;;;;;;;;5041938;28;20041;-69
2022/01/29 12:15:21;;;;;;;0.95;0.60;;;;;;;;;;5053885;28;20074;-69
2022/01/29 12:17:58;;;;;;;0.88;0.43;;;;;;;;;;5044595;28;20560;-70
2022/01/29 12:20:27;;;;;;;2.40;0.60;;;;;;;;;;5037531;28;20053;-69
2022/01/29 12:22:58;;;;;;;3.35;0.57;;;;;;;;;;5046629;28;20122;-70
2022/01/29 12:25:27;;;;;;;1.67;0.80;;;;;;;;;;5045296;28;20140;-69
2022/01/29 12:27:57;;;;;;;1.30;0.57;;;;;;;;;;5032865;28;20053;-70
2022/01/29 12:30:32;;;;;;;1.80;0.50;;;;;;;;;;5037755;28;20083;-70
2022/01/29 12:33:04;;;;;;;1.48;0.70;;;;;;;;;;5045496;28;20092;-69
2022/01/29 12:35:33;;;;;;;1.63;0.60;;;;;;;;;;5041402;28;20049;-69
2022/01/29 12:38:02;;;;;;;1.25;0.70;;;;;;;;;;5050479;28;20049;-69
2022/01/29 12:40:39;;;;;;;1.70;0.90;;;;;;;;;;5043607;28;20057;-69
2022/01/29 12:43:25;;;;;;;1.92;0.80;;;;;;;;;;5046654;28;20041;-69
2022/01/29 12:46:14;;;;;;;1.90;0.77;;;;;;;;;;5035429;28;20410;-69
2022/01/29 12:48:44;;;;;;;5.50;1.13;;;;;;;;;;5036466;28;20544;-69
2022/01/29 12:51:13;;;;;;;2.92;1.00;;;;;;;;;;5040792;28;20148;-69
2022/01/29 12:53:42;;;;;;;1.70;1.00;;;;;;;;;;5037839;28;20099;-69
2022/01/29 12:56:11;;;;;;;1.48;0.70;;;;;;;;;;5042973;28;20393;-69
2022/01/29 12:58:41;;;;;;;1.45;0.80;;;;;;;;;;5032482;28;20523;-69
2022/01/29 13:01:10;;;;;;;1.38;0.75;;;;;;;;;;5048705;28;20045;-68
2022/01/29 13:03:46;;;;;;;2.95;0.70;;;;;;;;;;5036185;28;20083;-68
2022/01/29 13:06:16;;;;;;;1.35;0.80;;;;;;;;;;5040291;28;20045;-69
2022/01/29 13:08:45;;;;;;;1.73;0.80;;;;;;;;;;5045900;28;20045;-69
2022/01/29 13:11:23;;;;;;;2.05;0.70;;;;;;;;;;5045532;28;20311;-69
2022/01/29 13:13:56;;;;;;;1.88;0.93;;;;;;;;;;5044747;28;20060;-69
2022/01/29 13:16:31;;;;;;;2.03;0.70;;;;;;;;;;5043697;28;20051;-69
2022/01/29 13:19:02;;;;;;;1.25;0.88;;;;;;;;;;5044108;28;20334;-69
2022/01/29 13:21:32;;;;;;;0.93;0.82;;;;;;;;;;5046274;28;20052;-70
2022/01/29 13:24:01;;;;;;;1.60;0.57;;;;;;;;;;5041616;28;20057;-69
2022/01/29 13:26:35;;;;;;;;;;;;;;;;;;5041485;28;20532;-69
2022/01/29 13:29:05;;;;;;;2.17;0.80;;;;;;;;;;5041392;28;20019;-69
2022/01/29 13:31:46;;;;;;;2.08;0.90;;;;;;;;;;5041874;28;20413;-69
2022/01/29 13:34:29;;;;;;;3.15;1.15;;;;;;;;;;5043858;28;20049;-69
2022/01/29 13:36:59;;;;;;;0.70;0.68;;;;;;;;;;5048524;28;20057;-69
2022/01/29 13:39:28;;;;;;;1.80;0.90;;;;;;;;;;5040415;28;20081;-69
2022/01/29 13:42:15;;;;;;;2.03;0.80;;;;;;;;;;5041549;28;20051;-69
2022/01/29 13:44:59;;;;;;;3.95;0.95;;;;;;;;;;5034168;28;20417;-69
2022/01/29 13:47:28;;;;;;;5.70;0.98;;;;;;;;;;5056943;28;20086;-71
2022/01/29 13:49:57;;;;;;;3.58;1.02;;;;;;;;;;5043158;28;20045;-72
2022/01/29 13:52:26;;;;;;;2.05;0.80;;;;;;;;;;5036096;28;20430;-71
2022/01/29 13:55:08;;;;;;;3.67;1.02;;;;;;;;;;5032072;28;20136;-71
2022/01/29 13:57:59;;;;;;;1.52;0.95;;;;;;;;;;5032277;28;20455;-72
2022/01/29 14:00:27;;;;;;;2.88;1.02;;;;;;;;;;5040095;28;20049;-71
2022/01/29 14:02:56;;;;;;;2.35;1.13;;;;;;;;;;5041488;28;20053;-72
2022/01/29 14:05:28;;;;;;;1.63;0.80;;;;;;;;;;5035793;28;20464;-72
2022/01/29 14:08:12;;;;;;;4.13;1.13;;;;;;;;;;5034640;28;20081;-72
2022/01/29 14:10:40;;;;;;;2.10;0.90;;;;;;;;;;5042782;28;20045;-72
2022/01/29 14:13:08;;;;;;;3.17;0.90;;;;;;;;;;5033254;28;20053;-72
2022/01/29 14:15:37;;;;;;;1.77;1.00;;;;;;;;;;5045174;28;20045;-71
2022/01/29 14:18:07;;;;;;;5.03;0.90;;;;;;;;;;5044871;28;20553;-71
2022/01/29 14:20:37;;;;;;;1.70;0.93;;;;;;;;;;5040883;28;20044;-72
2022/01/29 14:23:05;;;;;;;3.42;1.02;;;;;;;;;;5039222;28;20045;-73
2022/01/29 14:25:34;;;;;;;2.80;1.48;;;;;;;;;;5046145;28;20132;-71
2022/01/29 14:28:02;;;;;;;3.38;1.48;;;;;;;;;;5030800;28;20084;-73
2022/01/29 14:30:31;;;;;;;4.55;1.10;;;;;;;;;;5046964;28;20045;-73
2022/01/29 14:32:59;;;;;;;2.13;1.23;;;;;;;;;;5041002;28;20807;-73
2022/01/29 14:35:27;;;;;;;1.17;0.60;;;;;;;;;;5046241;28;20106;-73
2022/01/29 14:37:57;;;;;;;2.60;1.25;;;;;;;;;;5034514;28;20484;-73
2022/01/29 14:40:38;;;;;;;3.70;1.20;;;;;;;;;;5041081;28;20044;-72
2022/01/29 14:43:13;;;;;;;1.25;0.82;;;;;;;;;;5049672;28;20617;-73
2022/01/29 14:45:42;;;;;;;4.10;1.42;;;;;;;;;;5034471;28;20057;-74
2022/01/29 14:48:10;;;;;;;3.40;1.33;;;;;;;;;;5044825;28;20052;-73
2022/01/29 14:50:39;;;;;;;4.30;1.65;;;;;;;;;;5031970;28;20044;-74
2022/01/29 14:53:15;;;;;;;2.65;1.08;;;;;;;;;;5040583;28;20072;-72
2022/01/29 14:55:43;;;;;;;1.85;0.90;;;;;;;;;;5031291;28;20105;-73
2022/01/29 14:58:11;;;;;;;2.00;1.10;;;;;;;;;;5035196;28;20069;-73
2022/01/29 15:00:40;;;;;;;2.95;1.35;;;;;;;;;;5043620;28;20073;-72
2022/01/29 15:03:08;;;;;;;3.35;1.13;;;;;;;;;;5047145;28;20085;-73
2022/01/29 15:05:37;;;;;;;2.17;1.23;;;;;;;;;;5036839;28;20128;-72
2022/01/29 15:08:07;;;;;;;1.48;1.02;;;;;;;;;;5035439;28;20053;-73
2022/01/29 15:10:43;;;;;;;2.15;1.20;;;;;;;;;;5034054;28;20057;-73
2022/01/29 15:13:11;;;;;;;2.03;1.00;;;;;;;;;;5040396;28;20803;-73
2022/01/29 15:15:41;;;;;;;2.13;1.23;;;;;;;;;;5055588;28;20045;-72